Time;durP1;ratioP1;P1;durP2;ratioP2;P2;SDS_P1;SDS_P2;PMS_P1;PMS_P2;Temp;Humidity;BMP_temperature;BMP_pressure;BME280_temperature;BME280_humidity;BME280_pressure;Samples;Min_cycle;Max_cycle;Signal;HPM_P1;HPM_P2
2022/04/05 00:00:31;;;;;;;4.20;3.20;;;;;;;;;;4993714;28;99300;-77
2022/04/05 00:02:58;;;;;;;4.35;2.97;;;;;;;;;;4995013;28;98437;-76
2022/04/05 00:05:24;;;;;;;4.28;3.00;;;;;;;;;;4994870;28;99405;-76
2022/04/05 00:07:51;;;;;;;2.80;2.60;;;;;;;;;;4993902;28;100640;-76
2022/04/05 00:10:17;;;;;;;3.33;2.28;;;;;;;;;;4998181;28;98442;-76
2022/04/05 00:12:44;;;;;;;3.97;2.28;;;;;;;;;;4994130;28;100190;-75
2022/04/05 00:15:10;;;;;;;3.20;2.10;;;;;;;;;;4994224;28;98366;-76
2022/04/05 00:17:37;;;;;;;3.63;2.10;;;;;;;;;;4994633;28;99156;-75
2022/04/05 00:20:04;;;;;;;4.03;2.10;;;;;;;;;;4994133;28;99645;-76
2022/04/05 00:22:30;;;;;;;6.20;2.40;;;;;;;;;;4994604;28;98290;-76
2022/04/05 00:24:56;;;;;;;6.30;2.45;;;;;;;;;;4994977;28;99367;-75
2022/04/05 00:27:23;;;;;;;2.70;2.03;;;;;;;;;;4994187;28;99807;-76
2022/04/05 00:29:49;;;;;;;4.82;2.28;;;;;;;;;;4993054;28;98564;-76
2022/04/05 00:32:16;;;;;;;6.40;2.25;;;;;;;;;;4996874;28;99402;-76
2022/04/05 00:34:42;;;;;;;4.05;1.70;;;;;;;;;;4994123;28;98334;-75
2022/04/05 00:37:09;;;;;;;2.10;1.90;;;;;;;;;;4994423;28;99214;-75
2022/04/05 00:39:36;;;;;;;6.68;2.47;;;;;;;;;;4993875;28;100001;-75
2022/04/05 00:42:02;;;;;;;5.78;2.53;;;;;;;;;;4994558;28;98417;-76
2022/04/05 00:44:28;;;;;;;2.75;2.15;;;;;;;;;;4993990;28;99294;-75
2022/04/05 00:46:55;;;;;;;4.18;2.38;;;;;;;;;;4993420;28;100110;-75
2022/04/05 00:49:31;;;;;;;5.85;2.47;;;;;;;;;;4993744;28;97707;-75
2022/04/05 00:51:58;;;;;;;1.80;1.70;;;;;;;;;;4997139;28;98392;-75
2022/04/05 00:54:25;;;;;;;1.83;1.50;;;;;;;;;;4994009;28;98375;-76
2022/04/05 00:56:55;;;;;;;2.95;1.60;;;;;;;;;;4993092;28;99273;-75
2022/04/05 00:59:23;;;;;;;6.38;2.08;;;;;;;;;;4993662;28;99764;-75
2022/04/05 01:01:50;;;;;;;4.22;1.73;;;;;;;;;;4994053;28;98441;-75
2022/04/05 01:04:17;;;;;;;4.20;1.40;;;;;;;;;;4994217;28;99093;-75
2022/04/05 01:06:44;;;;;;;4.45;1.77;;;;;;;;;;4993293;28;100660;-75
2022/04/05 01:09:11;;;;;;;4.30;1.48;;;;;;;;;;4993895;28;98376;-75
2022/04/05 01:11:37;;;;;;;3.35;1.67;;;;;;;;;;4993229;28;99235;-75
2022/04/05 01:14:04;;;;;;;1.77;1.60;;;;;;;;;;4997145;28;98990;-76
2022/04/05 01:16:31;;;;;;;2.10;1.80;;;;;;;;;;4994100;28;98435;-75
2022/04/05 01:18:57;;;;;;;2.92;1.85;;;;;;;;;;4993576;28;99490;-76
2022/04/05 01:21:27;;;;;;;4.70;2.22;;;;;;;;;;4959325;28;99192;-75
2022/04/05 01:24:04;;;;;;;2.25;2.03;;;;;;;;;;4993471;28;99762;-77
2022/04/05 01:26:37;;;;;;;9.48;2.08;;;;;;;;;;4992307;28;99658;-76
2022/04/05 01:29:04;;;;;;;5.68;2.10;;;;;;;;;;4992745;28;98362;-75
2022/04/05 01:31:35;;;;;;;4.50;2.22;;;;;;;;;;4993534;28;99204;-76
2022/04/05 01:34:01;;;;;;;6.05;2.15;;;;;;;;;;4993068;28;99642;-76
2022/04/05 01:36:28;;;;;;;3.70;2.15;;;;;;;;;;4996128;28;98407;-76
2022/04/05 01:38:54;;;;;;;6.32;2.28;;;;;;;;;;4993397;28;98950;-75
2022/04/05 01:41:21;;;;;;;4.85;2.75;;;;;;;;;;4992643;28;98528;-76
2022/04/05 01:43:47;;;;;;;3.22;2.10;;;;;;;;;;4993544;28;98948;-75
2022/04/05 01:46:13;;;;;;;3.03;2.20;;;;;;;;;;4991510;28;100814;-76
2022/04/05 01:48:40;;;;;;;5.28;2.72;;;;;;;;;;4993069;28;98360;-75
2022/04/05 01:51:06;;;;;;;3.15;2.20;;;;;;;;;;4992763;28;99668;-76
2022/04/05 01:53:33;;;;;;;3.15;2.20;;;;;;;;;;4992741;28;99810;-77
2022/04/05 01:55:59;;;;;;;2.85;2.05;;;;;;;;;;4993284;28;99499;-75
2022/04/05 01:58:25;;;;;;;4.38;2.40;;;;;;;;;;4996083;28;99417;-76
2022/04/05 02:00:51;;;;;;;4.35;2.10;;;;;;;;;;4993075;28;98205;-76
2022/04/05 02:03:18;;;;;;;3.33;2.08;;;;;;;;;;4993625;28;99501;-77
2022/04/05 02:05:46;;;;;;;4.38;2.33;;;;;;;;;;4992576;28;99875;-76
2022/04/05 02:08:13;;;;;;;4.13;2.13;;;;;;;;;;4993468;28;98379;-76
2022/04/05 02:10:39;;;;;;;3.42;2.45;;;;;;;;;;4988559;28;100407;-77
2022/04/05 02:13:07;;;;;;;2.42;2.00;;;;;;;;;;4991080;28;101733;-76
2022/04/05 02:15:39;;;;;;;5.93;2.30;;;;;;;;;;4987766;28;99404;-76
2022/04/05 02:18:07;;;;;;;2.75;2.03;;;;;;;;;;4990758;28;101843;-76
2022/04/05 02:20:34;;;;;;;2.97;2.28;;;;;;;;;;4994024;28;99667;-77
2022/04/05 02:23:01;;;;;;;4.38;2.00;;;;;;;;;;4992070;28;99529;-75
2022/04/05 02:25:39;;;;;;;4.35;2.30;;;;;;;;;;4994833;28;102177;-77
2022/04/05 02:28:09;;;;;;;3.75;1.85;;;;;;;;;;4995778;28;97774;-77
2022/04/05 02:30:43;;;;;;;2.22;1.85;;;;;;;;;;4994723;28;101229;-77
2022/04/05 02:33:11;;;;;;;3.90;2.28;;;;;;;;;;4994777;28;102028;-77
2022/04/05 02:35:39;;;;;;;5.80;2.67;;;;;;;;;;4994268;28;99149;-77
2022/04/05 02:38:06;;;;;;;4.90;2.33;;;;;;;;;;4994967;28;102071;-76
2022/04/05 02:40:36;;;;;;;5.45;2.45;;;;;;;;;;4994705;28;101009;-76
2022/04/05 02:43:06;;;;;;;3.22;2.47;;;;;;;;;;4997916;28;98573;-77
2022/04/05 02:45:33;;;;;;;3.80;2.42;;;;;;;;;;4994508;28;101007;-76
2022/04/05 02:47:59;;;;;;;7.00;2.75;;;;;;;;;;4995865;28;98395;-77
2022/04/05 02:50:26;;;;;;;6.60;2.80;;;;;;;;;;4995755;28;99217;-76
2022/04/05 02:52:53;;;;;;;4.57;3.30;;;;;;;;;;4978693;28;100193;-76
2022/04/05 02:55:21;;;;;;;5.28;3.63;;;;;;;;;;4994811;28;98476;-76
2022/04/05 02:57:47;;;;;;;4.25;3.47;;;;;;;;;;4996239;28;99180;-77
2022/04/05 03:00:20;;;;;;;9.70;3.65;;;;;;;;;;4993892;28;102956;-77
2022/04/05 03:02:48;;;;;;;5.20;3.90;;;;;;;;;;4998035;28;98558;-77
2022/04/05 03:05:19;;;;;;;6.90;4.03;;;;;;;;;;4994457;28;102038;-77
2022/04/05 03:07:45;;;;;;;7.80;4.13;;;;;;;;;;4994676;28;98387;-76
2022/04/05 03:10:12;;;;;;;6.95;4.68;;;;;;;;;;4995890;28;99486;-78
2022/04/05 03:12:42;;;;;;;5.05;3.97;;;;;;;;;;4994056;28;101974;-77
2022/04/05 03:15:10;;;;;;;6.97;4.68;;;;;;;;;;4994387;28;98415;-76
2022/04/05 03:17:44;;;;;;;5.22;4.40;;;;;;;;;;4995784;28;99161;-77
2022/04/05 03:20:14;;;;;;;8.52;4.78;;;;;;;;;;4994054;28;101935;-77
2022/04/05 03:22:46;;;;;;;11.52;5.43;;;;;;;;;;4994754;28;98478;-77
2022/04/05 03:25:13;;;;;;;10.05;6.25;;;;;;;;;;4998223;28;99611;-76
2022/04/05 03:27:42;;;;;;;9.88;6.25;;;;;;;;;;4995780;28;98441;-76
2022/04/05 03:30:11;;;;;;;9.90;6.38;;;;;;;;;;4993814;28;101764;-75
2022/04/05 03:32:38;;;;;;;15.20;7.60;;;;;;;;;;4993873;28;102056;-76
2022/04/05 03:35:05;;;;;;;12.25;7.75;;;;;;;;;;4994258;28;98257;-76
2022/04/05 03:37:32;;;;;;;15.45;8.38;;;;;;;;;;4993803;28;101832;-75
2022/04/05 03:39:59;;;;;;;18.85;8.80;;;;;;;;;;4993757;28;101817;-76
2022/04/05 03:42:26;;;;;;;16.05;9.27;;;;;;;;;;4994251;28;98227;-75
2022/04/05 03:44:52;;;;;;;20.33;10.35;;;;;;;;;;4995074;28;99176;-75
2022/04/05 03:47:19;;;;;;;19.65;10.80;;;;;;;;;;4997427;28;99483;-75
2022/04/05 03:49:47;;;;;;;20.75;10.52;;;;;;;;;;4992470;28;100668;-75
2022/04/05 03:52:13;;;;;;;18.38;10.18;;;;;;;;;;4992742;28;102648;-75
2022/04/05 03:54:40;;;;;;;19.65;11.13;;;;;;;;;;4994117;28;98359;-75
2022/04/05 03:57:11;;;;;;;21.73;11.32;;;;;;;;;;4992640;28;101459;-76
2022/04/05 03:59:40;;;;;;;19.92;10.45;;;;;;;;;;4992647;28;100425;-76
2022/04/05 04:02:07;;;;;;;17.70;10.75;;;;;;;;;;4992863;28;99520;-75
2022/04/05 04:04:34;;;;;;;23.60;11.45;;;;;;;;;;4993160;28;101761;-75
2022/04/05 04:07:02;;;;;;;23.52;11.00;;;;;;;;;;4993037;28;100283;-76
2022/04/05 04:09:29;;;;;;;23.77;11.52;;;;;;;;;;4996278;28;98392;-77
2022/04/05 04:11:57;;;;;;;16.75;9.98;;;;;;;;;;4992229;28;101987;-77
2022/04/05 04:14:24;;;;;;;23.92;10.95;;;;;;;;;;4992221;28;99101;-77
2022/04/05 04:16:51;;;;;;;16.90;10.45;;;;;;;;;;4992727;28;102423;-76
2022/04/05 04:19:19;;;;;;;22.70;11.15;;;;;;;;;;4992380;28;102391;-76
2022/04/05 04:21:45;;;;;;;26.63;11.20;;;;;;;;;;4992694;28;98578;-76
2022/04/05 04:24:12;;;;;;;22.38;10.82;;;;;;;;;;4992006;28;101747;-75
2022/04/05 04:26:38;;;;;;;21.65;10.95;;;;;;;;;;4993462;28;100591;-77
2022/04/05 04:29:05;;;;;;;20.58;10.20;;;;;;;;;;5009338;28;98367;-77
2022/04/05 04:31:32;;;;;;;18.85;10.35;;;;;;;;;;4996103;28;102257;-76
2022/04/05 04:33:58;;;;;;;19.88;10.48;;;;;;;;;;4993586;28;98423;-76
2022/04/05 04:36:25;;;;;;;21.73;10.60;;;;;;;;;;4993601;28;99132;-76
2022/04/05 04:38:52;;;;;;;27.55;10.95;;;;;;;;;;4992400;28;100000;-78
2022/04/05 04:41:20;;;;;;;26.70;11.73;;;;;;;;;;4993603;28;98402;-77
2022/04/05 04:43:46;;;;;;;24.25;11.30;;;;;;;;;;4993554;28;99657;-76
2022/04/05 04:46:12;;;;;;;24.02;11.77;;;;;;;;;;4992854;28;99430;-77
2022/04/05 04:48:39;;;;;;;24.00;11.75;;;;;;;;;;4993170;28;98302;-76
2022/04/05 04:51:05;;;;;;;30.13;13.23;;;;;;;;;;4996503;28;99391;-76
2022/04/05 04:53:32;;;;;;;38.03;13.88;;;;;;;;;;4993138;28;98416;-76
2022/04/05 04:55:58;;;;;;;25.17;12.13;;;;;;;;;;4993957;28;99559;-77
2022/04/05 04:58:35;;;;;;;28.45;12.85;;;;;;;;;;4993020;28;99924;-76
2022/04/05 05:01:01;;;;;;;26.23;12.38;;;;;;;;;;4993094;28;98360;-77
2022/04/05 05:03:27;;;;;;;24.60;12.30;;;;;;;;;;4992953;28;99337;-76
2022/04/05 05:05:54;;;;;;;25.60;11.73;;;;;;;;;;4992643;28;99625;-76
2022/04/05 05:08:21;;;;;;;24.45;11.98;;;;;;;;;;4992856;28;98417;-76
2022/04/05 05:10:47;;;;;;;24.13;12.02;;;;;;;;;;4993047;28;100203;-77
2022/04/05 05:13:14;;;;;;;25.63;12.05;;;;;;;;;;4995875;28;99640;-76
2022/04/05 05:15:40;;;;;;;23.45;11.77;;;;;;;;;;4993005;28;99531;-77
2022/04/05 05:18:06;;;;;;;21.30;11.05;;;;;;;;;;4992619;28;99731;-77
2022/04/05 05:20:33;;;;;;;20.77;10.95;;;;;;;;;;4993259;28;97619;-77
2022/04/05 05:22:59;;;;;;;19.48;10.77;;;;;;;;;;4992694;28;98296;-77
2022/04/05 05:25:25;;;;;;;21.85;12.10;;;;;;;;;;4992410;28;99245;-77
2022/04/05 05:27:52;;;;;;;24.08;12.68;;;;;;;;;;4992032;28;99106;-76
2022/04/05 05:30:18;;;;;;;27.45;12.75;;;;;;;;;;4992847;28;100221;-77
2022/04/05 05:32:46;;;;;;;23.98;13.18;;;;;;;;;;4992382;28;100242;-76
2022/04/05 05:35:16;;;;;;;28.08;14.65;;;;;;;;;;4995231;28;99529;-76
2022/04/05 05:37:43;;;;;;;24.83;14.68;;;;;;;;;;4992149;28;99705;-76
2022/04/05 05:40:10;;;;;;;26.20;14.20;;;;;;;;;;4992462;28;98324;-76
2022/04/05 05:42:57;;;;;;;26.35;14.70;;;;;;;;;;4992455;28;99480;-76
2022/04/05 05:45:24;;;;;;;25.67;12.80;;;;;;;;;;4992492;28;98979;-76
2022/04/05 05:47:51;;;;;;;29.30;15.07;;;;;;;;;;4991583;28;98490;-76
2022/04/05 05:50:18;;;;;;;24.77;13.07;;;;;;;;;;4992500;28;99977;-76
2022/04/05 05:52:45;;;;;;;20.02;12.48;;;;;;;;;;4991647;28;100393;-76
2022/04/05 05:55:13;;;;;;;21.38;10.43;;;;;;;;;;4992478;28;98428;-77
2022/04/05 05:57:40;;;;;;;20.25;12.82;;;;;;;;;;4994880;28;99604;-76
2022/04/05 06:00:07;;;;;;;25.73;12.98;;;;;;;;;;4991666;28;99418;-75
2022/04/05 06:02:40;;;;;;;20.00;12.75;;;;;;;;;;4990062;28;99495;-75
2022/04/05 06:05:07;;;;;;;18.80;12.13;;;;;;;;;;4991945;28;99927;-77
2022/04/05 06:07:41;;;;;;;23.77;11.80;;;;;;;;;;4992118;28;98506;-76
2022/04/05 06:10:08;;;;;;;22.15;12.73;;;;;;;;;;4992330;28;100227;-76
2022/04/05 06:12:36;;;;;;;21.70;12.93;;;;;;;;;;4991864;28;99694;-76
2022/04/05 06:15:03;;;;;;;19.73;11.60;;;;;;;;;;4992287;28;99627;-75
2022/04/05 06:17:29;;;;;;;26.13;12.40;;;;;;;;;;5007579;28;99547;-76
2022/04/05 06:19:56;;;;;;;22.20;12.55;;;;;;;;;;4995300;28;99850;-79
2022/04/05 06:22:22;;;;;;;18.52;12.20;;;;;;;;;;4991173;28;99434;-77
2022/04/05 06:24:48;;;;;;;22.08;11.65;;;;;;;;;;4992194;28;99550;-77
2022/04/05 06:27:15;;;;;;;14.63;9.32;;;;;;;;;;4992284;28;98386;-78
2022/04/05 06:29:41;;;;;;;22.30;12.23;;;;;;;;;;4992878;28;99434;-77
2022/04/05 06:32:08;;;;;;;19.73;10.13;;;;;;;;;;4991084;28;99186;-79
2022/04/05 06:34:34;;;;;;;20.88;10.20;;;;;;;;;;4990794;28;97814;-77
2022/04/05 06:37:00;;;;;;;22.40;10.93;;;;;;;;;;4991985;28;98712;-78
2022/04/05 06:39:27;;;;;;;18.38;10.57;;;;;;;;;;4990775;28;100655;-79
2022/04/05 06:41:53;;;;;;;23.52;10.25;;;;;;;;;;4994942;28;99160;-77
2022/04/05 06:44:20;;;;;;;20.25;10.25;;;;;;;;;;4991539;28;100663;-74
2022/04/05 06:46:46;;;;;;;18.48;9.93;;;;;;;;;;4991618;28;98386;-74
2022/04/05 06:49:12;;;;;;;18.60;10.38;;;;;;;;;;4991305;28;100358;-75
2022/04/05 06:51:39;;;;;;;21.30;9.68;;;;;;;;;;4991731;28;99169;-80
2022/04/05 06:54:05;;;;;;;20.00;10.43;;;;;;;;;;4988897;28;98409;-79
2022/04/05 06:56:32;;;;;;;19.95;9.25;;;;;;;;;;4991845;28;99485;-76
2022/04/05 06:58:59;;;;;;;19.48;9.40;;;;;;;;;;4992965;28;98443;-76
2022/04/05 07:01:26;;;;;;;17.58;9.63;;;;;;;;;;4994287;28;98439;-79
2022/04/05 07:03:52;;;;;;;15.60;8.70;;;;;;;;;;4991863;28;100573;-80
2022/04/05 07:06:25;;;;;;;16.08;8.55;;;;;;;;;;4991986;28;99193;-76
2022/04/05 07:08:51;;;;;;;15.93;7.25;;;;;;;;;;4992245;28;101144;-78
2022/04/05 07:11:18;;;;;;;21.08;9.02;;;;;;;;;;4995402;28;99643;-76
2022/04/05 07:13:44;;;;;;;19.90;8.90;;;;;;;;;;4995769;28;98239;-77
2022/04/05 07:16:10;;;;;;;20.15;9.05;;;;;;;;;;4994499;28;102660;-75
2022/04/05 07:18:37;;;;;;;16.40;9.40;;;;;;;;;;4995412;28;99617;-87
2022/04/05 07:21:06;;;;;;;18.90;8.57;;;;;;;;;;4995545;28;98374;-78
2022/04/05 07:23:32;;;;;;;15.60;8.68;;;;;;;;;;4999164;28;99770;-81
2022/04/05 07:26:00;;;;;;;12.13;7.68;;;;;;;;;;4977784;28;98433;-81
2022/04/05 07:28:27;;;;;;;13.38;7.60;;;;;;;;;;4991708;28;102302;-81
2022/04/05 07:30:53;;;;;;;13.38;8.15;;;;;;;;;;4994386;28;99994;-76
2022/04/05 07:33:21;;;;;;;17.95;7.78;;;;;;;;;;4994468;28;98331;-77
2022/04/05 07:35:48;;;;;;;20.40;8.35;;;;;;;;;;4995472;28;98586;-75
2022/04/05 07:38:14;;;;;;;12.07;7.82;;;;;;;;;;4994834;28;100046;-78
2022/04/05 07:40:50;;;;;;;12.60;7.22;;;;;;;;;;4995927;28;98272;-79
2022/04/05 07:43:26;;;;;;;12.27;7.90;;;;;;;;;;4995690;28;98702;-77
2022/04/05 07:45:53;;;;;;;16.27;7.78;;;;;;;;;;4997589;28;99635;-77
2022/04/05 07:48:20;;;;;;;13.63;7.43;;;;;;;;;;4995977;28;98550;-77
2022/04/05 07:50:47;;;;;;;12.45;7.35;;;;;;;;;;4994592;28;101130;-79
2022/04/05 07:53:14;;;;;;;18.23;8.02;;;;;;;;;;4995206;28;98354;-78
2022/04/05 07:55:40;;;;;;;16.85;7.65;;;;;;;;;;4994817;28;99446;-78
2022/04/05 07:58:07;;;;;;;16.73;7.43;;;;;;;;;;4993592;28;99636;-76
2022/04/05 08:00:33;;;;;;;14.18;7.90;;;;;;;;;;4994884;28;98441;-78
2022/04/05 08:02:59;;;;;;;17.85;7.95;;;;;;;;;;4995271;28;98992;-74
2022/04/05 08:05:27;;;;;;;13.52;7.10;;;;;;;;;;4994621;28;99819;-84
2022/04/05 08:07:54;;;;;;;16.88;7.90;;;;;;;;;;4998532;28;98425;-79
2022/04/05 08:10:21;;;;;;;11.85;7.45;;;;;;;;;;4994405;28;100884;-80
2022/04/05 08:12:48;;;;;;;14.20;7.70;;;;;;;;;;4995294;28;97793;-74
2022/04/05 08:15:16;;;;;;;17.80;7.93;;;;;;;;;;4994970;28;98687;-74
2022/04/05 08:17:42;;;;;;;13.23;7.57;;;;;;;;;;4994478;28;100580;-74
2022/04/05 08:20:09;;;;;;;16.83;7.35;;;;;;;;;;4994529;28;99155;-75
2022/04/05 08:22:35;;;;;;;15.68;7.38;;;;;;;;;;4994161;28;100374;-78
2022/04/05 08:25:02;;;;;;;11.55;6.85;;;;;;;;;;4994388;28;99891;-76
2022/04/05 08:27:29;;;;;;;18.80;7.85;;;;;;;;;;4994660;28;98480;-73
2022/04/05 08:29:55;;;;;;;14.43;7.57;;;;;;;;;;4997610;28;99515;-74
2022/04/05 08:32:22;;;;;;;15.43;7.10;;;;;;;;;;4994719;28;100222;-74
2022/04/05 08:34:48;;;;;;;13.90;5.88;;;;;;;;;;4994514;28;99372;-77
2022/04/05 08:37:14;;;;;;;19.73;7.53;;;;;;;;;;4994649;28;100056;-77
2022/04/05 08:39:42;;;;;;;19.50;6.28;;;;;;;;;;4994376;28;98381;-76
2022/04/05 08:42:09;;;;;;;11.20;6.07;;;;;;;;;;4994519;28;99592;-75
2022/04/05 08:44:36;;;;;;;12.85;7.32;;;;;;;;;;4993403;28;100449;-75
2022/04/05 08:47:03;;;;;;;14.25;6.38;;;;;;;;;;4993754;28;98357;-76
2022/04/05 08:49:30;;;;;;;13.10;6.68;;;;;;;;;;4994497;28;99455;-76
2022/04/05 08:51:57;;;;;;;11.63;6.13;;;;;;;;;;4996856;28;100523;-76
2022/04/05 08:54:23;;;;;;;12.65;5.78;;;;;;;;;;4994096;28;99339;-75
2022/04/05 08:56:50;;;;;;;9.20;6.03;;;;;;;;;;4993260;28;100566;-75
2022/04/05 08:59:16;;;;;;;13.98;6.03;;;;;;;;;;4994145;28;98479;-76
2022/04/05 09:01:43;;;;;;;12.45;5.90;;;;;;;;;;4994592;28;99537;-75
2022/04/05 09:04:12;;;;;;;10.68;5.85;;;;;;;;;;4993865;28;99649;-76
2022/04/05 09:06:39;;;;;;;12.70;6.47;;;;;;;;;;4994303;28;98176;-75
2022/04/05 09:09:09;;;;;;;11.13;6.47;;;;;;;;;;4993557;28;99718;-76
2022/04/05 09:11:36;;;;;;;13.63;5.40;;;;;;;;;;4996022;28;99327;-76
2022/04/05 09:14:03;;;;;;;9.27;5.28;;;;;;;;;;4993917;28;99580;-76
2022/04/05 09:16:31;;;;;;;11.35;5.53;;;;;;;;;;4993594;28;99528;-75
2022/04/05 09:18:59;;;;;;;12.93;5.75;;;;;;;;;;4994245;28;98230;-75
2022/04/05 09:21:25;;;;;;;9.48;5.85;;;;;;;;;;4994275;28;99560;-75
2022/04/05 09:24:04;;;;;;;9.02;6.07;;;;;;;;;;4993330;28;99654;-75
2022/04/05 09:26:40;;;;;;;7.10;5.82;;;;;;;;;;4994514;28;99673;-76
2022/04/05 09:29:07;;;;;;;10.00;5.97;;;;;;;;;;4993783;28;98627;-75
2022/04/05 09:31:41;;;;;;;10.65;6.30;;;;;;;;;;4993487;28;99634;-75
2022/04/05 09:34:09;;;;;;;13.02;5.97;;;;;;;;;;4996466;28;99103;-74
2022/04/05 09:36:37;;;;;;;12.10;6.47;;;;;;;;;;4993326;28;99502;-74
2022/04/05 09:39:23;;;;;;;13.88;6.93;;;;;;;;;;4993806;28;98432;-75
2022/04/05 09:41:58;;;;;;;8.02;6.63;;;;;;;;;;4992788;28;99031;-75
2022/04/05 09:44:27;;;;;;;12.15;7.10;;;;;;;;;;4992765;28;100531;-75
2022/04/05 09:47:07;;;;;;;7.05;4.90;;;;;;;;;;4993011;28;98398;-75
2022/04/05 09:49:35;;;;;;;9.35;6.80;;;;;;;;;;4993596;28;99617;-75
2022/04/05 09:52:02;;;;;;;8.52;6.43;;;;;;;;;;4993396;28;99975;-75
2022/04/05 09:54:29;;;;;;;12.30;6.55;;;;;;;;;;4993164;28;98311;-76
2022/04/05 09:57:14;;;;;;;11.52;6.47;;;;;;;;;;4996336;28;99412;-76
2022/04/05 09:59:41;;;;;;;12.07;6.38;;;;;;;;;;4992838;28;99063;-74
2022/04/05 10:02:08;;;;;;;8.88;7.45;;;;;;;;;;4992191;28;101176;-76
2022/04/05 10:04:35;;;;;;;10.20;7.05;;;;;;;;;;4993049;28;99766;-76
2022/04/05 10:07:03;;;;;;;10.57;6.50;;;;;;;;;;4991980;28;98380;-75
2022/04/05 10:09:30;;;;;;;11.70;7.43;;;;;;;;;;4993136;28;99438;-75
2022/04/05 10:11:59;;;;;;;9.40;6.70;;;;;;;;;;4991930;28;100036;-76
2022/04/05 10:14:26;;;;;;;10.02;7.07;;;;;;;;;;4993353;28;98356;-77
2022/04/05 10:16:52;;;;;;;12.32;6.82;;;;;;;;;;4993448;28;99751;-76
2022/04/05 10:19:19;;;;;;;14.55;6.63;;;;;;;;;;4996093;28;99551;-76
2022/04/05 10:21:47;;;;;;;6.70;6.10;;;;;;;;;;4993197;28;99468;-75
2022/04/05 10:24:14;;;;;;;9.52;5.93;;;;;;;;;;4991982;28;100601;-78
2022/04/05 10:26:42;;;;;;;11.95;7.30;;;;;;;;;;4991714;28;100093;-77
2022/04/05 10:29:10;;;;;;;7.90;5.82;;;;;;;;;;4992913;28;100242;-76
2022/04/05 10:31:36;;;;;;;12.13;6.03;;;;;;;;;;4992596;28;99760;-75
2022/04/05 10:34:21;;;;;;;10.80;6.15;;;;;;;;;;4993055;28;98529;-75
2022/04/05 10:37:06;;;;;;;12.77;5.95;;;;;;;;;;4993157;28;99622;-76
2022/04/05 10:39:33;;;;;;;13.25;6.57;;;;;;;;;;4992409;28;99820;-77
2022/04/05 10:42:21;;;;;;;9.02;5.68;;;;;;;;;;4996710;28;97672;-76
2022/04/05 10:44:50;;;;;;;10.48;6.30;;;;;;;;;;4993642;28;100027;-78
2022/04/05 10:47:16;;;;;;;10.60;6.15;;;;;;;;;;4996138;28;98510;-75
2022/04/05 10:50:17;;;;;;;9.52;5.68;;;;;;;;;;4995575;28;100650;-76
2022/04/05 10:52:45;;;;;;;8.32;6.20;;;;;;;;;;4995635;28;100643;-75
2022/04/05 10:55:12;;;;;;;8.23;5.82;;;;;;;;;;4996354;28;98281;-76
2022/04/05 10:57:39;;;;;;;10.85;5.60;;;;;;;;;;4995924;28;99951;-76
2022/04/05 11:00:11;;;;;;;9.55;5.28;;;;;;;;;;4995870;28;99777;-77
2022/04/05 11:02:43;;;;;;;6.95;5.20;;;;;;;;;;4996222;28;98364;-76
2022/04/05 11:05:09;;;;;;;;;;;;;;;;;;4999203;28;100664;-76
2022/04/05 11:07:51;;;;;;;7.68;4.10;;;;;;;;;;4995737;28;116770;-76
2022/04/05 11:10:20;;;;;;;9.27;5.57;;;;;;;;;;4995957;28;98630;-76
2022/04/05 11:12:47;;;;;;;7.18;4.97;;;;;;;;;;4995771;28;99937;-75
2022/04/05 11:15:14;;;;;;;10.05;5.03;;;;;;;;;;4995413;28;99003;-77
2022/04/05 11:17:41;;;;;;;8.77;5.10;;;;;;;;;;4996283;28;99959;-76
2022/04/05 11:20:09;;;;;;;7.15;4.95;;;;;;;;;;4995563;28;99792;-76
2022/04/05 11:22:36;;;;;;;10.23;5.35;;;;;;;;;;4995720;28;98250;-76
2022/04/05 11:25:05;;;;;;;10.25;4.55;;;;;;;;;;4998540;28;99459;-77
2022/04/05 11:27:33;;;;;;;9.10;4.75;;;;;;;;;;4996052;28;98619;-78
2022/04/05 11:30:28;;;;;;;6.57;4.50;;;;;;;;;;4995884;28;99239;-77
2022/04/05 11:33:12;;;;;;;6.82;3.90;;;;;;;;;;4995402;28;99478;-77
2022/04/05 11:35:44;;;;;;;9.10;4.85;;;;;;;;;;4995381;28;98378;-78
2022/04/05 11:38:19;;;;;;;9.20;4.32;;;;;;;;;;4995748;28;99836;-78
2022/04/05 11:41:05;;;;;;;10.77;4.95;;;;;;;;;;4994531;28;100357;-77
2022/04/05 11:43:40;;;;;;;8.15;4.20;;;;;;;;;;4995229;28;98374;-77
2022/04/05 11:46:29;;;;;;;7.28;4.70;;;;;;;;;;4995589;28;99346;-76
2022/04/05 11:48:56;;;;;;;4.68;4.25;;;;;;;;;;4998307;28;99598;-77
2022/04/05 11:51:24;;;;;;;7.22;4.93;;;;;;;;;;4994752;28;99664;-76
2022/04/05 11:54:06;;;;;;;5.32;4.70;;;;;;;;;;4995120;28;99941;-78
2022/04/05 11:56:34;;;;;;;8.32;4.65;;;;;;;;;;4993727;28;98310;-78
2022/04/05 11:59:01;;;;;;;5.53;4.72;;;;;;;;;;4996024;28;99832;-77
2022/04/05 12:01:29;;;;;;;7.28;5.28;;;;;;;;;;4994749;28;99578;-78
2022/04/05 12:03:56;;;;;;;7.93;4.95;;;;;;;;;;4994918;28;98481;-76
2022/04/05 12:06:37;;;;;;;5.97;4.82;;;;;;;;;;4994797;28;99384;-77
2022/04/05 12:09:04;;;;;;;6.03;4.72;;;;;;;;;;4994470;28;100019;-78
2022/04/05 12:11:32;;;;;;;6.90;4.60;;;;;;;;;;4998471;28;98438;-76
2022/04/05 12:14:04;;;;;;;6.32;5.32;;;;;;;;;;4994765;28;99703;-77
2022/04/05 12:16:46;;;;;;;6.32;5.40;;;;;;;;;;4994831;28;98343;-75
2022/04/05 12:19:20;;;;;;;7.97;5.28;;;;;;;;;;4994609;28;100255;-75
2022/04/05 12:21:51;;;;;;;5.82;5.25;;;;;;;;;;4993851;28;99577;-75
2022/04/05 12:24:17;;;;;;;5.63;5.17;;;;;;;;;;4995404;28;97782;-75
2022/04/05 12:26:43;;;;;;;7.90;5.50;;;;;;;;;;4994924;28;99717;-74
2022/04/05 12:29:10;;;;;;;7.95;5.25;;;;;;;;;;4993851;28;99643;-75
2022/04/05 12:31:36;;;;;;;10.10;5.25;;;;;;;;;;4994370;28;99502;-75
2022/04/05 12:34:05;;;;;;;8.15;6.00;;;;;;;;;;4997409;28;100065;-75
2022/04/05 12:36:36;;;;;;;6.20;5.25;;;;;;;;;;4994498;28;98362;-75
2022/04/05 12:39:07;;;;;;;8.32;6.20;;;;;;;;;;4994349;28;100619;-75
2022/04/05 12:41:39;;;;;;;8.38;6.00;;;;;;;;;;4994023;28;99419;-75
2022/04/05 12:44:06;;;;;;;8.63;6.78;;;;;;;;;;4994214;28;98406;-75
2022/04/05 12:46:41;;;;;;;8.93;5.90;;;;;;;;;;4994299;28;100542;-75
2022/04/05 12:49:18;;;;;;;9.88;6.50;;;;;;;;;;4993512;28;98372;-75
2022/04/05 12:52:12;;;;;;;8.25;6.03;;;;;;;;;;4994431;28;98247;-75
2022/04/05 12:54:45;;;;;;;7.63;5.57;;;;;;;;;;4994643;28;99550;-75
2022/04/05 12:57:12;;;;;;;9.15;6.20;;;;;;;;;;4996844;28;100490;-75
2022/04/05 12:59:39;;;;;;;11.25;6.45;;;;;;;;;;4994300;28;100333;-75
2022/04/05 13:02:05;;;;;;;7.47;6.20;;;;;;;;;;4994110;28;99878;-74
2022/04/05 13:04:35;;;;;;;8.55;5.80;;;;;;;;;;4994469;28;99579;-75
2022/04/05 13:07:03;;;;;;;6.22;5.60;;;;;;;;;;4993870;28;99466;-75
2022/04/05 13:09:29;;;;;;;11.35;6.43;;;;;;;;;;4992563;28;100701;-74
2022/04/05 13:12:31;;;;;;;6.97;5.97;;;;;;;;;;4993831;28;98414;-75
2022/04/05 13:15:08;;;;;;;7.88;6.20;;;;;;;;;;4972913;28;99548;-75
2022/04/05 13:17:35;;;;;;;7.25;6.50;;;;;;;;;;4990680;28;99643;-75
2022/04/05 13:20:05;;;;;;;9.45;6.38;;;;;;;;;;4995986;28;98370;-77
2022/04/05 13:22:31;;;;;;;9.65;6.57;;;;;;;;;;4959628;28;101523;-75
2022/04/05 13:24:58;;;;;;;10.38;7.03;;;;;;;;;;4993885;28;98372;-75
2022/04/05 13:27:25;;;;;;;12.23;6.65;;;;;;;;;;4994092;28;99461;-75
2022/04/05 13:29:51;;;;;;;7.78;6.32;;;;;;;;;;4992948;28;100486;-75
2022/04/05 13:32:24;;;;;;;6.75;6.10;;;;;;;;;;4993808;28;98377;-75
2022/04/05 13:34:52;;;;;;;8.70;6.10;;;;;;;;;;4994003;28;99376;-74
2022/04/05 13:37:19;;;;;;;8.50;6.65;;;;;;;;;;4993266;28;99890;-76
2022/04/05 13:39:49;;;;;;;8.57;7.07;;;;;;;;;;4997628;28;97715;-75
2022/04/05 13:42:16;;;;;;;8.98;6.88;;;;;;;;;;4993124;28;99593;-77
2022/04/05 13:44:44;;;;;;;7.93;7.13;;;;;;;;;;4994076;28;98508;-77
2022/04/05 13:47:10;;;;;;;7.88;7.07;;;;;;;;;;4993066;28;102347;-77
2022/04/05 13:49:37;;;;;;;8.80;6.50;;;;;;;;;;4993194;28;100527;-76
2022/04/05 13:52:03;;;;;;;10.98;7.03;;;;;;;;;;4993314;28;98272;-77
2022/04/05 13:54:50;;;;;;;7.80;7.00;;;;;;;;;;4992893;28;100232;-77
2022/04/05 13:57:20;;;;;;;9.93;6.47;;;;;;;;;;4993053;28;99382;-77
2022/04/05 13:59:46;;;;;;;6.78;6.13;;;;;;;;;;4993911;28;98247;-76
2022/04/05 14:02:13;;;;;;;9.48;6.93;;;;;;;;;;4996071;28;100436;-77
2022/04/05 14:04:39;;;;;;;9.55;7.93;;;;;;;;;;4992940;28;97695;-76
2022/04/05 14:07:06;;;;;;;9.82;5.75;;;;;;;;;;4992260;28;100433;-77
2022/04/05 14:09:33;;;;;;;11.57;7.05;;;;;;;;;;4991546;28;100660;-77
2022/04/05 14:11:59;;;;;;;9.48;6.43;;;;;;;;;;4992734;28;99054;-77
2022/04/05 14:14:26;;;;;;;13.27;7.60;;;;;;;;;;4993234;28;100070;-76
2022/04/05 14:16:53;;;;;;;7.72;6.50;;;;;;;;;;4992362;28;100684;-76
2022/04/05 14:19:19;;;;;;;12.20;6.72;;;;;;;;;;4992228;28;98314;-76
2022/04/05 14:21:46;;;;;;;8.05;6.55;;;;;;;;;;4993029;28;100091;-76
2022/04/05 14:24:12;;;;;;;7.43;6.57;;;;;;;;;;4995967;28;99472;-75
2022/04/05 14:26:38;;;;;;;7.53;6.50;;;;;;;;;;4993094;28;100595;-76
2022/04/05 14:29:10;;;;;;;7.55;6.68;;;;;;;;;;4992854;28;99450;-76
2022/04/05 14:31:37;;;;;;;7.40;6.50;;;;;;;;;;4992912;28;98277;-75
2022/04/05 14:34:03;;;;;;;9.45;6.80;;;;;;;;;;4992690;28;100406;-76
2022/04/05 14:36:30;;;;;;;8.25;7.18;;;;;;;;;;4991549;28;99940;-76
2022/04/05 14:39:01;;;;;;;7.53;6.53;;;;;;;;;;4993023;28;98346;-75